sensor_id;sensor_type;location;lat;lon;timestamp;temperature;humidity
47590;DHT22;33316;52.298;9.056;2023-09-07T00:00:41;21.90;68.50
47590;DHT22;33316;52.298;9.056;2023-09-07T00:03:08;21.90;68.70
47590;DHT22;33316;52.298;9.056;2023-09-07T00:05:35;21.80;68.60
47590;DHT22;33316;52.298;9.056;2023-09-07T00:08:02;21.80;68.60
47590;DHT22;33316;52.298;9.056;2023-09-07T00:10:31;21.80;68.70
47590;DHT22;33316;52.298;9.056;2023-09-07T00:13:00;21.80;68.70
47590;DHT22;33316;52.298;9.056;2023-09-07T00:15:28;21.70;68.70
47590;DHT22;33316;52.298;9.056;2023-09-07T00:17:55;21.70;68.90
47590;DHT22;33316;52.298;9.056;2023-09-07T00:20:23;21.70;69.10
47590;DHT22;33316;52.298;9.056;2023-09-07T00:22:50;21.60;69.10
47590;DHT22;33316;52.298;9.056;2023-09-07T00:25:17;21.60;69.20
47590;DHT22;33316;52.298;9.056;2023-09-07T00:27:47;21.50;69.20
47590;DHT22;33316;52.298;9.056;2023-09-07T00:30:14;21.50;69.40
47590;DHT22;33316;52.298;9.056;2023-09-07T00:32:41;21.40;69.50
47590;DHT22;33316;52.298;9.056;2023-09-07T00:35:08;21.40;69.60
47590;DHT22;33316;52.298;9.056;2023-09-07T00:37:36;21.40;69.80
47590;DHT22;33316;52.298;9.056;2023-09-07T00:40:04;21.30;69.90
47590;DHT22;33316;52.298;9.056;2023-09-07T00:42:34;21.30;70.00
47590;DHT22;33316;52.298;9.056;2023-09-07T00:45:03;21.20;70.50
47590;DHT22;33316;52.298;9.056;2023-09-07T00:47:34;21.20;70.10
47590;DHT22;33316;52.298;9.056;2023-09-07T00:50:01;21.20;70.40
47590;DHT22;33316;52.298;9.056;2023-09-07T00:52:30;21.10;70.40
47590;DHT22;33316;52.298;9.056;2023-09-07T00:54:58;21.10;70.60
47590;DHT22;33316;52.298;9.056;2023-09-07T00:57:26;21.00;70.70
47590;DHT22;33316;52.298;9.056;2023-09-07T00:59:53;21.00;70.80
47590;DHT22;33316;52.298;9.056;2023-09-07T01:02:22;20.90;70.90
47590;DHT22;33316;52.298;9.056;2023-09-07T01:04:50;21.00;71.00
47590;DHT22;33316;52.298;9.056;2023-09-07T01:07:20;20.90;71.00
47590;DHT22;33316;52.298;9.056;2023-09-07T01:09:52;20.90;71.20
47590;DHT22;33316;52.298;9.056;2023-09-07T01:12:19;20.90;71.40
47590;DHT22;33316;52.298;9.056;2023-09-07T01:14:46;20.80;71.80
47590;DHT22;33316;52.298;9.056;2023-09-07T01:17:13;20.80;71.30
47590;DHT22;33316;52.298;9.056;2023-09-07T01:19:42;20.70;71.60
47590;DHT22;33316;52.298;9.056;2023-09-07T01:22:12;20.70;71.70
47590;DHT22;33316;52.298;9.056;2023-09-07T01:24:41;20.70;71.80
47590;DHT22;33316;52.298;9.056;2023-09-07T01:27:08;20.60;71.90
47590;DHT22;33316;52.298;9.056;2023-09-07T01:29:35;20.60;72.00
47590;DHT22;33316;52.298;9.056;2023-09-07T01:32:05;20.60;72.10
47590;DHT22;33316;52.298;9.056;2023-09-07T01:34:32;20.60;72.20
47590;DHT22;33316;52.298;9.056;2023-09-07T01:36:59;20.50;72.40
47590;DHT22;33316;52.298;9.056;2023-09-07T01:39:27;20.50;72.40
47590;DHT22;33316;52.298;9.056;2023-09-07T01:41:54;20.50;72.50
47590;DHT22;33316;52.298;9.056;2023-09-07T01:44:21;20.40;72.50
47590;DHT22;33316;52.298;9.056;2023-09-07T01:46:48;20.30;72.60
47590;DHT22;33316;52.298;9.056;2023-09-07T01:49:15;20.30;72.80
47590;DHT22;33316;52.298;9.056;2023-09-07T01:51:42;20.30;72.80
47590;DHT22;33316;52.298;9.056;2023-09-07T01:54:09;20.30;72.90
47590;DHT22;33316;52.298;9.056;2023-09-07T01:56:39;20.20;72.90
47590;DHT22;33316;52.298;9.056;2023-09-07T01:59:07;20.20;73.10
47590;DHT22;33316;52.298;9.056;2023-09-07T02:01:34;20.10;73.10
47590;DHT22;33316;52.298;9.056;2023-09-07T02:04:03;20.10;73.10
47590;DHT22;33316;52.298;9.056;2023-09-07T02:06:30;20.00;73.10
47590;DHT22;33316;52.298;9.056;2023-09-07T02:08:57;20.00;73.30
47590;DHT22;33316;52.298;9.056;2023-09-07T02:11:24;20.00;73.40
47590;DHT22;33316;52.298;9.056;2023-09-07T02:13:53;19.90;73.50
47590;DHT22;33316;52.298;9.056;2023-09-07T02:16:20;19.90;73.60
47590;DHT22;33316;52.298;9.056;2023-09-07T02:18:49;19.90;73.60
47590;DHT22;33316;52.298;9.056;2023-09-07T02:21:17;19.80;73.70
47590;DHT22;33316;52.298;9.056;2023-09-07T02:23:44;19.80;73.80
47590;DHT22;33316;52.298;9.056;2023-09-07T02:26:11;19.70;73.90
47590;DHT22;33316;52.298;9.056;2023-09-07T02:28:38;19.80;74.00
47590;DHT22;33316;52.298;9.056;2023-09-07T02:31:06;19.70;74.20
47590;DHT22;33316;52.298;9.056;2023-09-07T02:33:34;19.70;74.30
47590;DHT22;33316;52.298;9.056;2023-09-07T02:36:02;19.70;74.60
47590;DHT22;33316;52.298;9.056;2023-09-07T02:38:29;19.70;74.70
47590;DHT22;33316;52.298;9.056;2023-09-07T02:40:57;19.60;74.70
47590;DHT22;33316;52.298;9.056;2023-09-07T02:43:24;19.60;74.70
47590;DHT22;33316;52.298;9.056;2023-09-07T02:45:52;19.60;74.80
47590;DHT22;33316;52.298;9.056;2023-09-07T02:48:22;19.60;75.00
47590;DHT22;33316;52.298;9.056;2023-09-07T02:50:50;19.60;75.10
47590;DHT22;33316;52.298;9.056;2023-09-07T02:53:18;19.50;75.20
47590;DHT22;33316;52.298;9.056;2023-09-07T02:55:45;19.50;75.40
47590;DHT22;33316;52.298;9.056;2023-09-07T02:58:12;19.50;75.40
47590;DHT22;33316;52.298;9.056;2023-09-07T03:00:41;19.50;75.40
47590;DHT22;33316;52.298;9.056;2023-09-07T03:03:10;19.40;75.40
47590;DHT22;33316;52.298;9.056;2023-09-07T03:05:40;19.40;75.70
47590;DHT22;33316;52.298;9.056;2023-09-07T03:08:07;19.40;75.30
47590;DHT22;33316;52.298;9.056;2023-09-07T03:10:35;19.30;75.30
47590;DHT22;33316;52.298;9.056;2023-09-07T03:13:03;19.30;75.30
47590;DHT22;33316;52.298;9.056;2023-09-07T03:15:31;19.20;75.40
47590;DHT22;33316;52.298;9.056;2023-09-07T03:17:59;19.20;75.60
47590;DHT22;33316;52.298;9.056;2023-09-07T03:20:26;19.20;75.80
47590;DHT22;33316;52.298;9.056;2023-09-07T03:22:55;19.10;75.80
47590;DHT22;33316;52.298;9.056;2023-09-07T03:25:22;19.10;76.00
47590;DHT22;33316;52.298;9.056;2023-09-07T03:27:50;19.10;76.20
47590;DHT22;33316;52.298;9.056;2023-09-07T03:30:17;19.00;76.30
47590;DHT22;33316;52.298;9.056;2023-09-07T03:32:44;19.00;76.50
47590;DHT22;33316;52.298;9.056;2023-09-07T03:35:12;19.00;76.60
47590;DHT22;33316;52.298;9.056;2023-09-07T03:37:39;19.00;76.80
47590;DHT22;33316;52.298;9.056;2023-09-07T03:40:08;19.00;76.70
47590;DHT22;33316;52.298;9.056;2023-09-07T03:42:36;18.90;76.60
47590;DHT22;33316;52.298;9.056;2023-09-07T03:45:06;18.90;76.60
47590;DHT22;33316;52.298;9.056;2023-09-07T03:47:33;18.90;76.60
47590;DHT22;33316;52.298;9.056;2023-09-07T03:50:01;18.90;76.80
47590;DHT22;33316;52.298;9.056;2023-09-07T03:52:30;18.90;76.90
47590;DHT22;33316;52.298;9.056;2023-09-07T03:55:00;18.90;77.00
47590;DHT22;33316;52.298;9.056;2023-09-07T03:57:28;18.90;77.00
47590;DHT22;33316;52.298;9.056;2023-09-07T03:59:57;18.90;76.90
47590;DHT22;33316;52.298;9.056;2023-09-07T04:02:24;18.80;77.00
47590;DHT22;33316;52.298;9.056;2023-09-07T04:04:52;18.80;76.90
47590;DHT22;33316;52.298;9.056;2023-09-07T04:07:19;18.80;76.90
47590;DHT22;33316;52.298;9.056;2023-09-07T04:09:47;18.80;76.90
47590;DHT22;33316;52.298;9.056;2023-09-07T04:12:14;18.80;76.90
47590;DHT22;33316;52.298;9.056;2023-09-07T04:14:43;18.80;76.90
47590;DHT22;33316;52.298;9.056;2023-09-07T04:17:10;18.80;76.90
47590;DHT22;33316;52.298;9.056;2023-09-07T04:19:38;18.70;76.80
47590;DHT22;33316;52.298;9.056;2023-09-07T04:22:06;18.70;76.80
47590;DHT22;33316;52.298;9.056;2023-09-07T04:24:33;18.70;76.90
47590;DHT22;33316;52.298;9.056;2023-09-07T04:27:01;18.70;76.90
47590;DHT22;33316;52.298;9.056;2023-09-07T04:29:30;18.70;76.90
47590;DHT22;33316;52.298;9.056;2023-09-07T04:31:58;18.60;76.90
47590;DHT22;33316;52.298;9.056;2023-09-07T04:34:25;18.60;76.90
47590;DHT22;33316;52.298;9.056;2023-09-07T04:36:53;18.60;77.00
47590;DHT22;33316;52.298;9.056;2023-09-07T04:39:20;18.50;77.00
47590;DHT22;33316;52.298;9.056;2023-09-07T04:41:47;18.50;77.20
47590;DHT22;33316;52.298;9.056;2023-09-07T04:44:14;18.50;77.30
47590;DHT22;33316;52.298;9.056;2023-09-07T04:46:42;18.50;77.40
47590;DHT22;33316;52.298;9.056;2023-09-07T04:49:11;18.40;77.30
47590;DHT22;33316;52.298;9.056;2023-09-07T04:51:39;18.40;77.60
47590;DHT22;33316;52.298;9.056;2023-09-07T04:54:06;18.40;77.70
47590;DHT22;33316;52.298;9.056;2023-09-07T04:56:33;18.40;78.60
47590;DHT22;33316;52.298;9.056;2023-09-07T04:59:00;18.40;78.00
47590;DHT22;33316;52.298;9.056;2023-09-07T05:01:27;18.40;78.10
47590;DHT22;33316;52.298;9.056;2023-09-07T05:03:55;18.30;78.20
47590;DHT22;33316;52.298;9.056;2023-09-07T05:06:23;18.30;78.40
47590;DHT22;33316;52.298;9.056;2023-09-07T05:08:51;18.20;78.70
47590;DHT22;33316;52.298;9.056;2023-09-07T05:11:18;18.20;78.80
47590;DHT22;33316;52.298;9.056;2023-09-07T05:13:45;18.20;79.00
47590;DHT22;33316;52.298;9.056;2023-09-07T05:16:12;18.10;79.10
47590;DHT22;33316;52.298;9.056;2023-09-07T05:18:41;18.10;79.30
47590;DHT22;33316;52.298;9.056;2023-09-07T05:21:12;18.10;79.50
47590;DHT22;33316;52.298;9.056;2023-09-07T05:23:41;18.10;79.50
47590;DHT22;33316;52.298;9.056;2023-09-07T05:26:08;18.10;79.60
47590;DHT22;33316;52.298;9.056;2023-09-07T05:28:35;18.10;79.50
47590;DHT22;33316;52.298;9.056;2023-09-07T05:31:02;18.20;79.40
47590;DHT22;33316;52.298;9.056;2023-09-07T05:33:29;18.30;79.30
47590;DHT22;33316;52.298;9.056;2023-09-07T05:35:56;18.40;79.20
47590;DHT22;33316;52.298;9.056;2023-09-07T05:38:23;18.60;78.90
47590;DHT22;33316;52.298;9.056;2023-09-07T05:40:51;18.70;78.60
47590;DHT22;33316;52.298;9.056;2023-09-07T05:43:20;18.90;78.40
47590;DHT22;33316;52.298;9.056;2023-09-07T05:45:47;19.10;78.00
47590;DHT22;33316;52.298;9.056;2023-09-07T05:48:15;19.30;77.70
47590;DHT22;33316;52.298;9.056;2023-09-07T05:50:43;19.40;77.40
47590;DHT22;33316;52.298;9.056;2023-09-07T05:53:10;19.60;77.10
47590;DHT22;33316;52.298;9.056;2023-09-07T05:55:37;19.70;76.80
47590;DHT22;33316;52.298;9.056;2023-09-07T05:58:07;19.80;76.60
47590;DHT22;33316;52.298;9.056;2023-09-07T06:00:38;19.90;76.40
47590;DHT22;33316;52.298;9.056;2023-09-07T06:03:06;20.00;76.30
47590;DHT22;33316;52.298;9.056;2023-09-07T06:05:34;20.10;76.10
47590;DHT22;33316;52.298;9.056;2023-09-07T06:08:02;20.20;76.00
47590;DHT22;33316;52.298;9.056;2023-09-07T06:10:29;20.30;75.90
47590;DHT22;33316;52.298;9.056;2023-09-07T06:12:58;20.40;75.70
47590;DHT22;33316;52.298;9.056;2023-09-07T06:15:27;20.50;75.60
47590;DHT22;33316;52.298;9.056;2023-09-07T06:17:54;20.60;75.60
47590;DHT22;33316;52.298;9.056;2023-09-07T06:20:21;20.70;75.40
47590;DHT22;33316;52.298;9.056;2023-09-07T06:22:48;20.80;75.30
47590;DHT22;33316;52.298;9.056;2023-09-07T06:25:16;20.80;75.20
47590;DHT22;33316;52.298;9.056;2023-09-07T06:27:46;20.80;75.30
47590;DHT22;33316;52.298;9.056;2023-09-07T06:30:13;20.70;75.40
47590;DHT22;33316;52.298;9.056;2023-09-07T06:32:42;20.70;75.60
47590;DHT22;33316;52.298;9.056;2023-09-07T06:35:10;20.80;75.70
47590;DHT22;33316;52.298;9.056;2023-09-07T06:37:37;20.80;75.60
47590;DHT22;33316;52.298;9.056;2023-09-07T06:40:08;20.90;75.50
47590;DHT22;33316;52.298;9.056;2023-09-07T06:42:36;20.90;75.50
47590;DHT22;33316;52.298;9.056;2023-09-07T06:45:09;21.00;75.40
47590;DHT22;33316;52.298;9.056;2023-09-07T06:47:37;21.10;75.30
47590;DHT22;33316;52.298;9.056;2023-09-07T06:50:07;21.30;75.40
47590;DHT22;33316;52.298;9.056;2023-09-07T06:52:34;21.30;75.30
47590;DHT22;33316;52.298;9.056;2023-09-07T06:55:01;21.30;75.20
47590;DHT22;33316;52.298;9.056;2023-09-07T06:57:29;21.40;75.10
47590;DHT22;33316;52.298;9.056;2023-09-07T06:59:57;21.40;75.00
47590;DHT22;33316;52.298;9.056;2023-09-07T07:02:24;21.40;74.90
47590;DHT22;33316;52.298;9.056;2023-09-07T07:04:51;21.50;74.80
47590;DHT22;33316;52.298;9.056;2023-09-07T07:07:23;21.50;74.70
47590;DHT22;33316;52.298;9.056;2023-09-07T07:09:55;21.50;74.70
47590;DHT22;33316;52.298;9.056;2023-09-07T07:12:23;21.60;74.70
47590;DHT22;33316;52.298;9.056;2023-09-07T07:14:52;21.70;74.70
47590;DHT22;33316;52.298;9.056;2023-09-07T07:17:23;21.80;74.70
47590;DHT22;33316;52.298;9.056;2023-09-07T07:19:50;21.90;74.60
47590;DHT22;33316;52.298;9.056;2023-09-07T07:22:17;21.90;74.40
47590;DHT22;33316;52.298;9.056;2023-09-07T07:24:47;22.00;74.20
47590;DHT22;33316;52.298;9.056;2023-09-07T07:27:15;22.00;74.20
47590;DHT22;33316;52.298;9.056;2023-09-07T07:29:43;22.20;74.10
47590;DHT22;33316;52.298;9.056;2023-09-07T07:32:11;22.20;73.70
47590;DHT22;33316;52.298;9.056;2023-09-07T07:34:39;22.30;73.70
47590;DHT22;33316;52.298;9.056;2023-09-07T07:37:06;22.30;73.60
47590;DHT22;33316;52.298;9.056;2023-09-07T07:39:34;22.40;73.40
47590;DHT22;33316;52.298;9.056;2023-09-07T07:42:09;22.40;73.30
47590;DHT22;33316;52.298;9.056;2023-09-07T07:44:36;22.50;73.20
47590;DHT22;33316;52.298;9.056;2023-09-07T07:47:04;22.60;72.90
47590;DHT22;33316;52.298;9.056;2023-09-07T07:49:31;22.60;72.90
47590;DHT22;33316;52.298;9.056;2023-09-07T07:52:00;22.70;72.90
47590;DHT22;33316;52.298;9.056;2023-09-07T07:54:27;22.80;72.60
47590;DHT22;33316;52.298;9.056;2023-09-07T07:56:58;22.90;72.40
47590;DHT22;33316;52.298;9.056;2023-09-07T07:59:27;22.90;72.20
47590;DHT22;33316;52.298;9.056;2023-09-07T08:01:55;23.00;72.00
47590;DHT22;33316;52.298;9.056;2023-09-07T08:04:24;23.10;71.80
47590;DHT22;33316;52.298;9.056;2023-09-07T08:06:51;23.20;71.90
47590;DHT22;33316;52.298;9.056;2023-09-07T08:09:24;23.20;71.90
47590;DHT22;33316;52.298;9.056;2023-09-07T08:11:51;23.40;71.90
47590;DHT22;33316;52.298;9.056;2023-09-07T08:14:18;23.40;71.10
47590;DHT22;33316;52.298;9.056;2023-09-07T08:16:48;23.50;71.00
47590;DHT22;33316;52.298;9.056;2023-09-07T08:22:39;23.60;70.60
47590;DHT22;33316;52.298;9.056;2023-09-07T08:25:09;23.70;70.30
47590;DHT22;33316;52.298;9.056;2023-09-07T08:27:36;23.80;70.30
47590;DHT22;33316;52.298;9.056;2023-09-07T08:30:04;23.90;69.90
47590;DHT22;33316;52.298;9.056;2023-09-07T08:32:33;23.90;70.00
47590;DHT22;33316;52.298;9.056;2023-09-07T08:35:00;24.00;70.00
47590;DHT22;33316;52.298;9.056;2023-09-07T08:37:29;24.10;69.30
47590;DHT22;33316;52.298;9.056;2023-09-07T08:39:57;24.10;69.00
47590;DHT22;33316;52.298;9.056;2023-09-07T08:42:25;24.10;68.80
47590;DHT22;33316;52.298;9.056;2023-09-07T08:44:53;24.10;68.50
47590;DHT22;33316;52.298;9.056;2023-09-07T08:47:24;24.20;68.80
47590;DHT22;33316;52.298;9.056;2023-09-07T08:49:55;24.20;68.70
47590;DHT22;33316;52.298;9.056;2023-09-07T08:52:23;24.20;68.40
47590;DHT22;33316;52.298;9.056;2023-09-07T08:54:50;24.30;68.20
47590;DHT22;33316;52.298;9.056;2023-09-07T08:57:20;24.40;68.30
47590;DHT22;33316;52.298;9.056;2023-09-07T08:59:49;24.40;68.00
47590;DHT22;33316;52.298;9.056;2023-09-07T09:02:16;24.50;68.00
47590;DHT22;33316;52.298;9.056;2023-09-07T09:04:43;24.50;68.00
47590;DHT22;33316;52.298;9.056;2023-09-07T09:07:11;24.60;67.80
47590;DHT22;33316;52.298;9.056;2023-09-07T09:09:38;24.60;67.60
47590;DHT22;33316;52.298;9.056;2023-09-07T09:12:09;24.60;67.40
47590;DHT22;33316;52.298;9.056;2023-09-07T09:14:36;24.70;68.10
47590;DHT22;33316;52.298;9.056;2023-09-07T09:17:03;24.80;68.10
47590;DHT22;33316;52.298;9.056;2023-09-07T09:19:31;24.80;67.20
47590;DHT22;33316;52.298;9.056;2023-09-07T09:21:58;24.90;67.30
47590;DHT22;33316;52.298;9.056;2023-09-07T09:24:27;25.00;67.00
47590;DHT22;33316;52.298;9.056;2023-09-07T09:26:54;25.10;66.80
47590;DHT22;33316;52.298;9.056;2023-09-07T09:29:22;25.20;66.30
47590;DHT22;33316;52.298;9.056;2023-09-07T09:31:51;25.20;66.00
47590;DHT22;33316;52.298;9.056;2023-09-07T09:34:18;25.30;66.10
47590;DHT22;33316;52.298;9.056;2023-09-07T09:36:45;25.40;66.20
47590;DHT22;33316;52.298;9.056;2023-09-07T09:39:22;25.40;66.00
47590;DHT22;33316;52.298;9.056;2023-09-07T09:41:52;25.50;65.50
47590;DHT22;33316;52.298;9.056;2023-09-07T09:44:22;25.50;65.20
47590;DHT22;33316;52.298;9.056;2023-09-07T09:46:52;25.60;64.90
47590;DHT22;33316;52.298;9.056;2023-09-07T09:49:21;25.60;64.80
47590;DHT22;33316;52.298;9.056;2023-09-07T09:51:49;25.70;64.40
47590;DHT22;33316;52.298;9.056;2023-09-07T09:54:19;25.70;64.00
47590;DHT22;33316;52.298;9.056;2023-09-07T09:56:48;25.80;64.40
47590;DHT22;33316;52.298;9.056;2023-09-07T09:59:18;25.80;64.20
47590;DHT22;33316;52.298;9.056;2023-09-07T10:01:46;25.90;64.20
47590;DHT22;33316;52.298;9.056;2023-09-07T10:04:17;26.00;64.00
47590;DHT22;33316;52.298;9.056;2023-09-07T10:06:55;26.00;64.00
47590;DHT22;33316;52.298;9.056;2023-09-07T10:09:22;26.10;63.80
47590;DHT22;33316;52.298;9.056;2023-09-07T10:11:53;26.20;63.60
47590;DHT22;33316;52.298;9.056;2023-09-07T10:14:25;26.20;62.90
47590;DHT22;33316;52.298;9.056;2023-09-07T10:16:55;26.30;63.10
47590;DHT22;33316;52.298;9.056;2023-09-07T10:19:25;26.30;63.10
47590;DHT22;33316;52.298;9.056;2023-09-07T10:21:54;26.40;63.00
47590;DHT22;33316;52.298;9.056;2023-09-07T10:24:25;26.40;63.10
47590;DHT22;33316;52.298;9.056;2023-09-07T10:26:57;26.50;62.70
47590;DHT22;33316;52.298;9.056;2023-09-07T10:29:26;26.50;62.60
47590;DHT22;33316;52.298;9.056;2023-09-07T10:31:54;26.50;62.40
47590;DHT22;33316;52.298;9.056;2023-09-07T10:34:22;26.60;62.50
47590;DHT22;33316;52.298;9.056;2023-09-07T10:37:00;26.60;62.30
47590;DHT22;33316;52.298;9.056;2023-09-07T10:39:31;26.80;62.20
47590;DHT22;33316;52.298;9.056;2023-09-07T10:42:03;26.80;61.60
47590;DHT22;33316;52.298;9.056;2023-09-07T10:44:34;26.90;61.10
47590;DHT22;33316;52.298;9.056;2023-09-07T10:47:04;26.90;60.70
47590;DHT22;33316;52.298;9.056;2023-09-07T10:49:31;27.00;61.10
47590;DHT22;33316;52.298;9.056;2023-09-07T10:51:58;27.10;60.80
47590;DHT22;33316;52.298;9.056;2023-09-07T10:54:25;27.10;60.30
47590;DHT22;33316;52.298;9.056;2023-09-07T10:56:52;27.20;59.80
47590;DHT22;33316;52.298;9.056;2023-09-07T10:59:23;27.30;59.70
47590;DHT22;33316;52.298;9.056;2023-09-07T11:02:09;27.40;60.40
47590;DHT22;33316;52.298;9.056;2023-09-07T11:04:39;27.40;59.10
47590;DHT22;33316;52.298;9.056;2023-09-07T11:07:06;27.50;58.10
47590;DHT22;33316;52.298;9.056;2023-09-07T11:09:33;27.50;57.60
47590;DHT22;33316;52.298;9.056;2023-09-07T11:12:04;27.60;57.40
47590;DHT22;33316;52.298;9.056;2023-09-07T11:14:31;27.70;56.80
47590;DHT22;33316;52.298;9.056;2023-09-07T11:17:00;27.70;56.60
47590;DHT22;33316;52.298;9.056;2023-09-07T11:19:32;27.70;56.30
47590;DHT22;33316;52.298;9.056;2023-09-07T11:21:59;27.80;55.90
47590;DHT22;33316;52.298;9.056;2023-09-07T11:24:26;27.90;55.70
47590;DHT22;33316;52.298;9.056;2023-09-07T11:26:53;27.90;55.10
47590;DHT22;33316;52.298;9.056;2023-09-07T11:29:20;27.90;54.90
47590;DHT22;33316;52.298;9.056;2023-09-07T11:31:47;27.90;54.80
47590;DHT22;33316;52.298;9.056;2023-09-07T11:34:15;28.00;54.90
47590;DHT22;33316;52.298;9.056;2023-09-07T11:36:43;28.00;54.20
47590;DHT22;33316;52.298;9.056;2023-09-07T11:39:10;28.00;54.60
47590;DHT22;33316;52.298;9.056;2023-09-07T11:41:38;28.10;54.10
47590;DHT22;33316;52.298;9.056;2023-09-07T11:44:06;28.10;53.60
47590;DHT22;33316;52.298;9.056;2023-09-07T11:46:34;28.10;53.80
47590;DHT22;33316;52.298;9.056;2023-09-07T11:49:01;28.20;53.60
47590;DHT22;33316;52.298;9.056;2023-09-07T11:51:29;28.20;53.50
47590;DHT22;33316;52.298;9.056;2023-09-07T11:53:56;28.20;53.40
47590;DHT22;33316;52.298;9.056;2023-09-07T11:56:24;28.30;53.60
47590;DHT22;33316;52.298;9.056;2023-09-07T11:58:53;28.30;53.60
47590;DHT22;33316;52.298;9.056;2023-09-07T12:01:20;28.40;53.30
47590;DHT22;33316;52.298;9.056;2023-09-07T12:03:47;28.30;53.10
47590;DHT22;33316;52.298;9.056;2023-09-07T12:06:14;28.40;53.40
47590;DHT22;33316;52.298;9.056;2023-09-07T12:08:58;28.40;53.80
47590;DHT22;33316;52.298;9.056;2023-09-07T12:11:25;28.40;53.60
47590;DHT22;33316;52.298;9.056;2023-09-07T12:13:52;28.50;53.70
47590;DHT22;33316;52.298;9.056;2023-09-07T12:16:19;28.50;53.70
47590;DHT22;33316;52.298;9.056;2023-09-07T12:18:46;28.50;53.60
47590;DHT22;33316;52.298;9.056;2023-09-07T12:21:13;28.60;53.80
47590;DHT22;33316;52.298;9.056;2023-09-07T12:23:40;28.60;53.50
47590;DHT22;33316;52.298;9.056;2023-09-07T12:26:08;28.60;54.20
47590;DHT22;33316;52.298;9.056;2023-09-07T12:28:35;28.60;54.60
47590;DHT22;33316;52.298;9.056;2023-09-07T12:31:04;28.60;55.00
47590;DHT22;33316;52.298;9.056;2023-09-07T12:33:31;28.70;55.10
47590;DHT22;33316;52.298;9.056;2023-09-07T12:36:00;28.70;54.80
47590;DHT22;33316;52.298;9.056;2023-09-07T12:38:27;28.70;54.90
47590;DHT22;33316;52.298;9.056;2023-09-07T12:40:56;28.70;54.70
47590;DHT22;33316;52.298;9.056;2023-09-07T12:43:25;28.80;54.30
47590;DHT22;33316;52.298;9.056;2023-09-07T12:45:52;28.70;54.00
47590;DHT22;33316;52.298;9.056;2023-09-07T12:48:19;28.70;53.80
47590;DHT22;33316;52.298;9.056;2023-09-07T12:50:48;28.70;53.90
47590;DHT22;33316;52.298;9.056;2023-09-07T12:53:15;28.70;54.00
47590;DHT22;33316;52.298;9.056;2023-09-07T12:55:44;28.70;54.10
47590;DHT22;33316;52.298;9.056;2023-09-07T12:58:11;28.70;54.10
47590;DHT22;33316;52.298;9.056;2023-09-07T13:00:39;28.80;54.00
47590;DHT22;33316;52.298;9.056;2023-09-07T13:03:08;28.80;53.90
47590;DHT22;33316;52.298;9.056;2023-09-07T13:05:35;28.90;53.80
47590;DHT22;33316;52.298;9.056;2023-09-07T13:08:02;28.90;53.70
47590;DHT22;33316;52.298;9.056;2023-09-07T13:10:31;28.90;53.70
47590;DHT22;33316;52.298;9.056;2023-09-07T13:12:59;29.00;53.60
47590;DHT22;33316;52.298;9.056;2023-09-07T13:15:27;29.00;53.40
47590;DHT22;33316;52.298;9.056;2023-09-07T13:17:56;29.00;53.20
47590;DHT22;33316;52.298;9.056;2023-09-07T13:20:23;29.00;53.40
47590;DHT22;33316;52.298;9.056;2023-09-07T13:22:50;29.10;53.20
47590;DHT22;33316;52.298;9.056;2023-09-07T13:25:20;29.10;53.40
47590;DHT22;33316;52.298;9.056;2023-09-07T13:27:47;29.10;53.30
47590;DHT22;33316;52.298;9.056;2023-09-07T13:30:15;29.20;53.50
47590;DHT22;33316;52.298;9.056;2023-09-07T13:32:43;29.20;53.40
47590;DHT22;33316;52.298;9.056;2023-09-07T13:35:14;29.20;53.30
47590;DHT22;33316;52.298;9.056;2023-09-07T13:37:40;29.30;52.60
47590;DHT22;33316;52.298;9.056;2023-09-07T13:40:08;29.30;52.60
47590;DHT22;33316;52.298;9.056;2023-09-07T13:42:36;29.30;52.20
47590;DHT22;33316;52.298;9.056;2023-09-07T13:45:05;29.30;52.20
47590;DHT22;33316;52.298;9.056;2023-09-07T13:47:32;29.30;52.30
47590;DHT22;33316;52.298;9.056;2023-09-07T13:49:59;29.30;52.30
47590;DHT22;33316;52.298;9.056;2023-09-07T13:52:27;29.30;52.30
47590;DHT22;33316;52.298;9.056;2023-09-07T13:54:55;29.40;52.20
47590;DHT22;33316;52.298;9.056;2023-09-07T13:57:21;29.40;52.90
47590;DHT22;33316;52.298;9.056;2023-09-07T13:59:49;29.40;52.00
47590;DHT22;33316;52.298;9.056;2023-09-07T14:02:16;29.40;52.10
47590;DHT22;33316;52.298;9.056;2023-09-07T14:04:43;29.40;52.10
47590;DHT22;33316;52.298;9.056;2023-09-07T14:07:09;29.40;52.10
47590;DHT22;33316;52.298;9.056;2023-09-07T14:09:38;29.40;51.80
47590;DHT22;33316;52.298;9.056;2023-09-07T14:12:05;29.50;52.00
47590;DHT22;33316;52.298;9.056;2023-09-07T14:14:33;29.50;51.80
47590;DHT22;33316;52.298;9.056;2023-09-07T14:17:00;29.50;51.80
47590;DHT22;33316;52.298;9.056;2023-09-07T14:19:27;29.60;51.80
47590;DHT22;33316;52.298;9.056;2023-09-07T14:21:56;29.60;51.50
47590;DHT22;33316;52.298;9.056;2023-09-07T14:24:23;29.60;51.70
47590;DHT22;33316;52.298;9.056;2023-09-07T14:26:52;29.50;51.40
47590;DHT22;33316;52.298;9.056;2023-09-07T14:29:19;29.60;51.50
47590;DHT22;33316;52.298;9.056;2023-09-07T14:31:46;29.60;51.40
47590;DHT22;33316;52.298;9.056;2023-09-07T14:34:13;29.50;51.30
47590;DHT22;33316;52.298;9.056;2023-09-07T14:36:40;29.60;51.70
47590;DHT22;33316;52.298;9.056;2023-09-07T14:39:08;29.60;51.90
47590;DHT22;33316;52.298;9.056;2023-09-07T14:41:35;29.60;51.90
47590;DHT22;33316;52.298;9.056;2023-09-07T14:44:03;29.60;51.70
47590;DHT22;33316;52.298;9.056;2023-09-07T14:46:30;29.60;51.50
47590;DHT22;33316;52.298;9.056;2023-09-07T14:48:57;29.60;51.80
47590;DHT22;33316;52.298;9.056;2023-09-07T14:51:26;29.60;51.60
47590;DHT22;33316;52.298;9.056;2023-09-07T14:53:53;29.50;51.70
47590;DHT22;33316;52.298;9.056;2023-09-07T14:56:20;29.50;51.60
47590;DHT22;33316;52.298;9.056;2023-09-07T14:58:47;29.60;51.60
47590;DHT22;33316;52.298;9.056;2023-09-07T15:01:18;29.60;51.80
47590;DHT22;33316;52.298;9.056;2023-09-07T15:03:45;29.60;51.90
47590;DHT22;33316;52.298;9.056;2023-09-07T15:06:12;29.60;51.80
47590;DHT22;33316;52.298;9.056;2023-09-07T15:08:41;29.60;51.90
47590;DHT22;33316;52.298;9.056;2023-09-07T15:11:08;29.60;51.90
47590;DHT22;33316;52.298;9.056;2023-09-07T15:13:37;29.60;52.10
47590;DHT22;33316;52.298;9.056;2023-09-07T15:16:07;29.60;52.10
47590;DHT22;33316;52.298;9.056;2023-09-07T15:18:40;29.60;52.80
47590;DHT22;33316;52.298;9.056;2023-09-07T15:21:07;29.60;51.90
47590;DHT22;33316;52.298;9.056;2023-09-07T15:23:36;29.60;52.00
47590;DHT22;33316;52.298;9.056;2023-09-07T15:26:05;29.60;52.10
47590;DHT22;33316;52.298;9.056;2023-09-07T15:28:33;29.60;52.00
47590;DHT22;33316;52.298;9.056;2023-09-07T15:31:02;29.60;51.70
47590;DHT22;33316;52.298;9.056;2023-09-07T15:33:29;29.60;51.80
47590;DHT22;33316;52.298;9.056;2023-09-07T15:35:57;29.60;52.00
47590;DHT22;33316;52.298;9.056;2023-09-07T15:38:24;29.60;52.00